createdAt,value
2022-10-31T00:01:32.408Z,96509.13
2022-10-31T00:03:59.251Z,96511.94
2022-10-31T00:06:26.367Z,96507.47
2022-10-31T00:08:58.901Z,96503.66
2022-10-31T00:11:25.976Z,96520.03
2022-10-31T00:13:53.030Z,96515.41
2022-10-31T00:16:23.056Z,96521.41
2022-10-31T00:18:58.064Z,96516.75
2022-10-31T00:21:25.914Z,96524.66
2022-10-31T00:23:53.115Z,96519.50
2022-10-31T00:26:20.312Z,96524.34
2022-10-31T00:28:47.780Z,96518.63
2022-10-31T00:31:15.100Z,96526.72
2022-10-31T00:33:42.684Z,96522.00
2022-10-31T00:36:13.591Z,96525.38
2022-10-31T00:38:42.341Z,96518.47
2022-10-31T00:41:09.760Z,96524.28
2022-10-31T00:43:36.572Z,96527.84
2022-10-31T00:46:03.530Z,96524.09
2022-10-31T00:48:31.033Z,96528.19
2022-10-31T00:50:57.854Z,96524.22
2022-10-31T00:53:24.719Z,96520.59
2022-10-31T00:55:52.598Z,96522.59
2022-10-31T00:58:19.523Z,96524.22
2022-10-31T01:00:56.004Z,96519.47
2022-10-31T01:03:32.258Z,96522.81
2022-10-31T01:06:05.066Z,96516.50
2022-10-31T01:08:33.226Z,96526.09
2022-10-31T01:11:12.703Z,96522.22
2022-10-31T01:13:40.713Z,96519.59
2022-10-31T01:16:10.911Z,96530.13
2022-10-31T01:18:37.905Z,96527.59
2022-10-31T01:21:09.046Z,96521.88
2022-10-31T01:23:36.355Z,96516.41
2022-10-31T01:26:12.333Z,96515.97
2022-10-31T01:28:49.327Z,96528.13
2022-10-31T01:31:17.904Z,96523.47
2022-10-31T01:33:45.185Z,96527.94
2022-10-31T01:36:17.050Z,96521.31
2022-10-31T01:38:43.927Z,96520.84
2022-10-31T01:41:13.295Z,96532.56
2022-10-31T01:43:53.725Z,96529.75
2022-10-31T01:46:40.920Z,96528.56
2022-10-31T01:49:15.925Z,96532.09
2022-10-31T01:51:50.652Z,96528.81
2022-10-31T01:54:21.838Z,96531.31
2022-10-31T01:56:54.140Z,96529.81
2022-10-31T01:59:23.069Z,96540.91
2022-10-31T02:01:52.007Z,96521.22
2022-10-31T02:04:21.242Z,96527.72
2022-10-31T02:06:53.510Z,96527.69
2022-10-31T02:09:24.426Z,96528.03
2022-10-31T02:11:54.669Z,96536.56
2022-10-31T02:14:24.749Z,96531.31
2022-10-31T02:16:52.412Z,96529.22
2022-10-31T02:19:28.832Z,96529.38
2022-10-31T02:22:10.635Z,96528.75
2022-10-31T02:25:04.436Z,96536.81
2022-10-31T02:27:55.713Z,96529.31
2022-10-31T02:30:29.929Z,96529.84
2022-10-31T02:33:09.364Z,96532.09
2022-10-31T02:35:50.078Z,96536.81
2022-10-31T02:39:00.049Z,96533.09
2022-10-31T02:41:57.593Z,96530.28
2022-10-31T02:45:13.922Z,96536.44
2022-10-31T02:47:43.760Z,96538.50
2022-10-31T02:50:10.673Z,96535.09
2022-10-31T02:52:39.451Z,96534.91
2022-10-31T02:55:14.308Z,96525.00
2022-10-31T02:57:43.389Z,96521.72
2022-10-31T03:00:10.847Z,96525.88
2022-10-31T03:02:59.501Z,96531.78
2022-10-31T03:05:50.258Z,96533.69
2022-10-31T03:08:36.974Z,96528.41
2022-10-31T03:11:07.854Z,96535.84
2022-10-31T03:13:38.025Z,96531.03
2022-10-31T03:16:26.967Z,96531.25
2022-10-31T03:19:03.232Z,96527.69
2022-10-31T03:21:36.500Z,96531.03
2022-10-31T03:24:06.293Z,96534.00
2022-10-31T03:26:38.928Z,96529.44
2022-10-31T03:29:11.910Z,96532.22
2022-10-31T03:31:48.076Z,96534.53
2022-10-31T03:34:19.045Z,96533.19
2022-10-31T03:36:50.270Z,96532.69
2022-10-31T03:39:20.340Z,96544.41
2022-10-31T03:41:53.396Z,96544.34
2022-10-31T03:44:22.976Z,96542.00
2022-10-31T03:46:58.886Z,96537.94
2022-10-31T03:49:26.038Z,96542.16
2022-10-31T03:52:05.615Z,96538.84
2022-10-31T03:54:43.244Z,96542.00
2022-10-31T03:57:32.474Z,96541.81
2022-10-31T04:00:10.148Z,96544.91
2022-10-31T04:02:57.225Z,96539.50
2022-10-31T04:05:26.125Z,96536.56
2022-10-31T04:07:59.869Z,96548.06
2022-10-31T04:10:32.846Z,96542.47
2022-10-31T04:13:11.227Z,96550.63
2022-10-31T04:15:53.517Z,96542.09
2022-10-31T04:18:26.621Z,96543.75
2022-10-31T04:21:02.487Z,96546.75
2022-10-31T04:23:29.685Z,96546.97
2022-10-31T04:25:56.656Z,96548.38
2022-10-31T04:28:23.733Z,96549.47
2022-10-31T04:30:51.962Z,96554.06
2022-10-31T04:33:18.806Z,96545.53
2022-10-31T04:35:47.677Z,96544.53
2022-10-31T04:38:14.583Z,96548.75
2022-10-31T04:40:43.302Z,96546.09
2022-10-31T04:43:42.057Z,96543.41
2022-10-31T04:46:08.796Z,96545.09
2022-10-31T04:48:35.600Z,96549.31
2022-10-31T04:51:05.717Z,96551.47
2022-10-31T04:53:32.628Z,96547.91
2022-10-31T04:56:19.342Z,96549.34
2022-10-31T04:58:48.275Z,96551.34
2022-10-31T05:01:15.253Z,96547.25
2022-10-31T05:03:42.657Z,96544.34
2022-10-31T05:06:09.523Z,96539.59
2022-10-31T05:08:37.772Z,96539.75
2022-10-31T05:11:07.452Z,96546.94
2022-10-31T05:13:34.569Z,96545.09
2022-10-31T05:16:13.191Z,96549.84
2022-10-31T05:18:58.361Z,96546.38
2022-10-31T05:21:43.733Z,96549.00
2022-10-31T05:24:11.655Z,96545.41
2022-10-31T05:26:40.728Z,96545.72
2022-10-31T05:29:07.527Z,96545.69
2022-10-31T05:31:34.872Z,96544.72
2022-10-31T05:34:03.043Z,96540.22
2022-10-31T05:37:02.128Z,96547.91
2022-10-31T05:39:28.950Z,96546.47
2022-10-31T05:42:06.328Z,96553.56
2022-10-31T05:44:33.136Z,96553.06
2022-10-31T05:47:20.153Z,96549.56
2022-10-31T05:49:55.841Z,96549.22
2022-10-31T05:52:42.550Z,96556.41
2022-10-31T05:55:31.434Z,96556.72
2022-10-31T05:58:04.753Z,96554.56
2022-10-31T06:00:36.050Z,96553.22
2022-10-31T06:05:50.765Z,96555.22
2022-10-31T06:08:24.487Z,96561.28
2022-10-31T06:10:51.812Z,96564.56
2022-10-31T06:13:25.440Z,96564.25
2022-10-31T06:15:59.531Z,96565.84
2022-10-31T06:18:33.019Z,96566.50
2022-10-31T06:21:00.236Z,96565.50
2022-10-31T06:23:27.023Z,96572.59
2022-10-31T06:26:10.719Z,96571.00
2022-10-31T06:28:37.831Z,96567.19
2022-10-31T06:31:17.838Z,96573.63
2022-10-31T06:33:44.677Z,96573.78
2022-10-31T06:36:11.660Z,96579.88
2022-10-31T06:38:38.428Z,96579.69
2022-10-31T06:41:08.101Z,96588.72
2022-10-31T06:43:54.249Z,96583.94
2022-10-31T06:46:40.756Z,96583.63
2022-10-31T06:49:41.910Z,96580.53
2022-10-31T06:52:15.301Z,96584.28
2022-10-31T06:54:42.084Z,96583.94
2022-10-31T06:57:09.387Z,96584.94
2022-10-31T06:59:38.194Z,96587.97
2022-10-31T07:02:31.199Z,96596.88
2022-10-31T07:04:59.706Z,96600.13
2022-10-31T07:07:26.767Z,96593.66
2022-10-31T07:09:54.183Z,96594.78
2022-10-31T07:12:34.804Z,96591.31
2022-10-31T07:15:01.773Z,96603.13
2022-10-31T07:17:30.081Z,96600.00
2022-10-31T07:20:00.064Z,96598.81
2022-10-31T07:22:36.583Z,96600.94
2022-10-31T07:25:05.831Z,96608.31
2022-10-31T07:27:44.380Z,96604.50
2022-10-31T07:30:14.078Z,96603.97
2022-10-31T07:32:52.720Z,96608.72
2022-10-31T07:35:30.458Z,96603.94
2022-10-31T07:37:59.315Z,96606.22
2022-10-31T07:40:26.535Z,96609.31
2022-10-31T07:42:54.360Z,96607.34
2022-10-31T07:45:52.153Z,96613.06
2022-10-31T07:48:37.609Z,96610.91
2022-10-31T07:51:25.131Z,96613.00
2022-10-31T07:54:10.348Z,96614.28
2022-10-31T07:56:38.032Z,96612.97
2022-10-31T07:59:06.713Z,96614.41
2022-10-31T08:01:33.475Z,96608.97
2022-10-31T08:04:20.508Z,96610.47
2022-10-31T08:07:06.145Z,96606.69
2022-10-31T08:09:36.383Z,96606.94
2022-10-31T08:12:11.697Z,96611.53
2022-10-31T08:14:38.713Z,96609.53
2022-10-31T08:17:06.109Z,96609.81
2022-10-31T08:19:41.788Z,96612.56
2022-10-31T08:22:12.123Z,96602.66
2022-10-31T08:27:11.031Z,96602.59
2022-10-31T08:29:39.655Z,96602.06
2022-10-31T08:32:07.264Z,96604.81
2022-10-31T08:34:52.678Z,96598.19
2022-10-31T08:37:39.821Z,96587.94
2022-10-31T08:40:09.036Z,96602.19
2022-10-31T08:42:35.991Z,96601.00
2022-10-31T08:45:03.440Z,96593.41
2022-10-31T08:47:32.623Z,96594.66
2022-10-31T08:49:59.553Z,96593.31
2022-10-31T08:52:51.051Z,96592.13
2022-10-31T08:55:14.637Z,96592.25
2022-10-31T08:58:00.509Z,96598.16
2022-10-31T09:00:37.127Z,96594.78
2022-10-31T09:03:29.713Z,96584.06
2022-10-31T09:05:58.484Z,96587.34
2022-10-31T09:08:27.282Z,96582.50
2022-10-31T09:10:57.887Z,96576.91
2022-10-31T09:13:44.876Z,96578.16
2022-10-31T09:16:35.060Z,96579.06
2022-10-31T09:19:01.917Z,96576.72
2022-10-31T09:21:28.713Z,96580.00
2022-10-31T09:23:58.834Z,96574.53
2022-10-31T09:26:25.772Z,96577.59
2022-10-31T09:29:14.630Z,96582.13
2022-10-31T09:31:45.028Z,96581.78
2022-10-31T09:34:27.262Z,96575.75
2022-10-31T09:37:09.352Z,96573.41
2022-10-31T09:39:36.348Z,96572.66
2022-10-31T09:42:29.995Z,96576.38
2022-10-31T09:44:58.778Z,96572.38
2022-10-31T09:47:54.041Z,96571.16
2022-10-31T09:50:54.219Z,96576.53
2022-10-31T09:53:55.476Z,96576.13
2022-10-31T09:56:26.873Z,96572.13
2022-10-31T09:59:01.714Z,96569.56
2022-10-31T10:02:14.035Z,96569.59
2022-10-31T10:04:45.940Z,96572.31
2022-10-31T10:07:55.013Z,96572.31
2022-10-31T10:11:04.927Z,96577.22
2022-10-31T10:13:59.204Z,96573.84
2022-10-31T10:17:08.395Z,96566.81
2022-10-31T10:20:20.833Z,96568.50
2022-10-31T10:23:06.296Z,96564.91
2022-10-31T10:25:40.773Z,96566.78
2022-10-31T10:28:19.741Z,96570.06
2022-10-31T10:30:51.873Z,96557.47
2022-10-31T10:33:45.201Z,96557.34
2022-10-31T10:36:17.919Z,96554.56
2022-10-31T10:38:56.296Z,96545.22
2022-10-31T10:41:27.449Z,96550.94
2022-10-31T10:43:57.297Z,96547.91
2022-10-31T10:46:47.926Z,96545.69
2022-10-31T10:49:36.174Z,96534.34
2022-10-31T10:52:49.225Z,96532.59
2022-10-31T10:55:24.857Z,96530.78
2022-10-31T10:57:59.935Z,96533.94
2022-10-31T11:00:42.422Z,96530.94
2022-10-31T11:03:10.687Z,96527.56
2022-10-31T11:05:41.902Z,96528.44
2022-10-31T11:08:09.327Z,96521.44
2022-10-31T11:10:36.960Z,96516.75
2022-10-31T11:13:18.742Z,96517.34
2022-10-31T11:15:53.976Z,96505.91
2022-10-31T11:21:00.282Z,96509.97
2022-10-31T11:23:29.133Z,96501.66
2022-10-31T11:26:06.005Z,96497.22
2022-10-31T11:28:35.974Z,96489.28
2022-10-31T11:31:14.387Z,96500.41
2022-10-31T11:33:49.464Z,96487.22
2022-10-31T11:36:32.057Z,96485.63
2022-10-31T11:39:02.172Z,96482.31
2022-10-31T11:41:32.843Z,96475.84
2022-10-31T11:44:00.989Z,96468.78
2022-10-31T11:46:42.069Z,96464.78
2022-10-31T11:49:40.092Z,96464.97
2022-10-31T11:52:15.575Z,96455.06
2022-10-31T11:54:58.356Z,96453.91
2022-10-31T11:57:32.687Z,96455.19
2022-10-31T12:00:02.067Z,96450.72
2022-10-31T12:02:38.982Z,96444.84
2022-10-31T12:05:18.955Z,96432.13
2022-10-31T12:07:45.738Z,96433.66
2022-10-31T12:10:13.557Z,96434.03
2022-10-31T12:12:46.032Z,96429.44
2022-10-31T12:15:32.669Z,96425.41
2022-10-31T12:18:43.051Z,96426.13
2022-10-31T12:21:28.943Z,96425.78
2022-10-31T12:24:05.001Z,96414.22
2022-10-31T12:26:52.723Z,96414.50
2022-10-31T12:29:47.337Z,96420.44
2022-10-31T12:32:23.095Z,96414.56
2022-10-31T12:34:50.080Z,96412.94
2022-10-31T12:37:19.556Z,96405.63
2022-10-31T12:40:00.210Z,96399.97
2022-10-31T12:42:42.678Z,96403.13
2022-10-31T12:45:26.549Z,96404.16
2022-10-31T12:48:02.232Z,96398.19
2022-10-31T12:50:47.130Z,96396.56
2022-10-31T12:53:44.954Z,96396.47
2022-10-31T12:56:11.663Z,96394.38
2022-10-31T12:58:44.888Z,96390.44
2022-10-31T13:01:23.970Z,96391.84
2022-10-31T13:03:55.513Z,96391.38
2022-10-31T13:06:28.731Z,96396.38
2022-10-31T13:09:00.949Z,96390.25
2022-10-31T13:11:43.529Z,96386.41
2022-10-31T13:14:34.198Z,96391.38
2022-10-31T13:17:02.520Z,96386.06
2022-10-31T13:19:33.163Z,96390.56
2022-10-31T13:22:03.853Z,96383.41
2022-10-31T13:24:53.789Z,96389.16
2022-10-31T13:27:24.213Z,96385.81
2022-10-31T13:30:05.641Z,96382.78
2022-10-31T13:32:46.471Z,96382.66
2022-10-31T13:35:21.545Z,96377.59
2022-10-31T13:38:03.923Z,96383.72
2022-10-31T13:40:42.748Z,96386.16
2022-10-31T13:43:58.571Z,96375.06
2022-10-31T13:46:33.200Z,96375.38
2022-10-31T13:49:00.826Z,96381.66
2022-10-31T13:51:35.024Z,96374.47
2022-10-31T13:54:20.253Z,96365.66
2022-10-31T13:56:52.416Z,96369.34
2022-10-31T13:59:23.094Z,96366.97
2022-10-31T14:01:52.418Z,96371.94
2022-10-31T14:04:38.097Z,96368.31
2022-10-31T14:07:10.049Z,96366.44
2022-10-31T14:09:49.183Z,96361.69
2022-10-31T14:12:24.901Z,96363.13
2022-10-31T14:14:59.631Z,96358.56
2022-10-31T14:17:33.395Z,96362.56
2022-10-31T14:20:02.613Z,96363.69
2022-10-31T14:22:37.311Z,96352.16
2022-10-31T14:25:45.562Z,96351.75
2022-10-31T14:28:33.563Z,96343.84
2022-10-31T14:31:01.912Z,96338.81
2022-10-31T14:33:31.161Z,96345.47
2022-10-31T14:36:20.015Z,96336.13
2022-10-31T14:39:08.468Z,96333.63
2022-10-31T14:41:37.882Z,96336.41
2022-10-31T14:44:42.247Z,96333.91
2022-10-31T14:47:23.973Z,96333.19
2022-10-31T14:50:10.707Z,96330.03
2022-10-31T14:52:39.534Z,96323.56
2022-10-31T14:55:13.268Z,96329.81
2022-10-31T14:57:50.408Z,96327.41
2022-10-31T15:00:22.208Z,96324.00
2022-10-31T15:03:13.396Z,96321.59
2022-10-31T15:05:57.499Z,96314.09
2022-10-31T15:08:28.855Z,96315.78
2022-10-31T15:10:55.702Z,96311.56
2022-10-31T15:13:23.356Z,96308.50
2022-10-31T15:15:56.254Z,96308.09
2022-10-31T15:18:26.893Z,96307.13
2022-10-31T15:20:56.099Z,96302.06
2022-10-31T15:23:29.154Z,96302.50
2022-10-31T15:26:03.878Z,96299.72
2022-10-31T15:28:32.418Z,96292.25
2022-10-31T15:31:01.688Z,96295.56
2022-10-31T15:33:37.541Z,96292.16
2022-10-31T15:36:06.397Z,96290.56
2022-10-31T15:38:34.030Z,96288.94
2022-10-31T15:41:05.898Z,96296.91
2022-10-31T15:43:38.496Z,96294.84
2022-10-31T15:46:09.884Z,96290.19
2022-10-31T15:48:36.734Z,96296.69
2022-10-31T15:51:04.316Z,96289.97
2022-10-31T15:53:49.861Z,96292.63
2022-10-31T15:56:30.392Z,96275.75
2022-10-31T15:58:59.806Z,96279.19
2022-10-31T16:01:29.489Z,96275.34
2022-10-31T16:04:23.938Z,96276.34
2022-10-31T16:07:22.993Z,96274.53
2022-10-31T16:09:59.007Z,96283.81
2022-10-31T16:12:35.688Z,96276.84
2022-10-31T16:15:04.204Z,96272.03
2022-10-31T16:17:31.589Z,96270.00
2022-10-31T16:20:02.058Z,96275.09
2022-10-31T16:22:36.074Z,96268.00
2022-10-31T16:25:15.848Z,96272.47
2022-10-31T16:27:53.987Z,96274.25
2022-10-31T16:30:40.231Z,96277.41
2022-10-31T16:33:27.587Z,96274.47
2022-10-31T16:36:04.479Z,96265.00
2022-10-31T16:38:42.925Z,96260.75
2022-10-31T16:41:09.801Z,96260.03
2022-10-31T16:43:36.618Z,96249.09
2022-10-31T16:46:04.627Z,96241.03
2022-10-31T16:48:31.455Z,96241.44
2022-10-31T16:50:58.184Z,96243.72
2022-10-31T16:53:25.687Z,96256.06
2022-10-31T16:55:56.471Z,96248.34
2022-10-31T16:58:25.359Z,96245.94
2022-10-31T17:00:53.529Z,96254.00
2022-10-31T17:03:20.822Z,96260.13
2022-10-31T17:05:47.706Z,96252.22
2022-10-31T17:08:14.733Z,96255.47
2022-10-31T17:10:43.554Z,96243.28
2022-10-31T17:13:19.747Z,96253.59
2022-10-31T17:15:53.634Z,96243.84
2022-10-31T17:18:26.083Z,96250.50
2022-10-31T17:21:02.761Z,96247.84
2022-10-31T17:23:31.776Z,96253.13
2022-10-31T17:25:59.530Z,96255.19
2022-10-31T17:28:30.789Z,96253.53
2022-10-31T17:30:59.575Z,96257.19
2022-10-31T17:33:27.043Z,96248.84
2022-10-31T17:35:54.781Z,96245.38
2022-10-31T17:38:24.144Z,96247.44
2022-10-31T17:40:51.619Z,96243.31
2022-10-31T17:43:19.123Z,96242.53
2022-10-31T17:45:45.908Z,96244.13
2022-10-31T17:48:13.189Z,96248.75
2022-10-31T17:50:40.807Z,96246.53
2022-10-31T17:53:07.852Z,96251.38
2022-10-31T17:55:37.425Z,96254.63
2022-10-31T17:58:05.411Z,96239.19
2022-10-31T18:00:32.792Z,96225.00
2022-10-31T18:03:00.076Z,96217.91
2022-10-31T18:05:27.198Z,96215.66
2022-10-31T18:07:54.264Z,96212.41
2022-10-31T18:10:21.173Z,96212.94
2022-10-31T18:12:48.865Z,96215.53
2022-10-31T18:15:16.702Z,96214.09
2022-10-31T18:17:44.204Z,96207.41
2022-10-31T18:20:11.585Z,96201.72
2022-10-31T18:22:38.434Z,96205.78
2022-10-31T18:25:06.194Z,96203.78
2022-10-31T18:27:32.990Z,96200.56
2022-10-31T18:29:59.808Z,96201.41
2022-10-31T18:32:26.538Z,96198.19
2022-10-31T18:34:53.917Z,96192.13
2022-10-31T18:37:20.704Z,96199.41
2022-10-31T18:39:47.498Z,96190.28
2022-10-31T18:42:14.292Z,96191.28
2022-10-31T18:44:41.275Z,96181.78
2022-10-31T18:47:08.093Z,96175.13
2022-10-31T18:49:34.849Z,96178.00
2022-10-31T18:52:01.576Z,96176.97
2022-10-31T18:54:28.432Z,96181.25
2022-10-31T18:56:56.006Z,96187.16
2022-10-31T18:59:22.883Z,96176.81
2022-10-31T19:01:49.844Z,96168.53
2022-10-31T19:04:16.692Z,96167.72
2022-10-31T19:06:43.473Z,96168.16
2022-10-31T19:09:10.890Z,96154.78
2022-10-31T19:11:38.801Z,96163.31
2022-10-31T19:14:08.544Z,96160.25
2022-10-31T19:16:36.348Z,96156.03
2022-10-31T19:19:03.393Z,96148.34
2022-10-31T19:21:32.402Z,96145.72
2022-10-31T19:24:00.409Z,96152.25
2022-10-31T19:26:28.268Z,96151.03
2022-10-31T19:28:56.546Z,96145.75
2022-10-31T19:31:23.682Z,96147.97
2022-10-31T19:33:50.450Z,96140.44
2022-10-31T19:36:18.925Z,96141.66
2022-10-31T19:38:48.212Z,96139.97
2022-10-31T19:41:26.185Z,96134.72
2022-10-31T19:43:54.067Z,96131.63
2022-10-31T19:46:40.445Z,96137.09
2022-10-31T19:49:11.896Z,96136.66
2022-10-31T19:51:38.829Z,96133.81
2022-10-31T19:54:06.289Z,96133.63
2022-10-31T19:56:33.057Z,96133.63
2022-10-31T19:58:59.951Z,96138.88
2022-10-31T20:01:26.716Z,96131.59
2022-10-31T20:03:53.606Z,96128.59
2022-10-31T20:06:33.044Z,96129.59
2022-10-31T20:09:05.324Z,96128.97
2022-10-31T20:11:32.084Z,96124.88
2022-10-31T20:14:00.130Z,96126.06
2022-10-31T20:16:28.029Z,96133.50
2022-10-31T20:18:55.530Z,96123.50
2022-10-31T20:21:26.461Z,96112.97
2022-10-31T20:24:01.490Z,96111.91
2022-10-31T20:26:29.574Z,96115.72
2022-10-31T20:28:57.602Z,96106.75
2022-10-31T20:31:27.929Z,96115.00
2022-10-31T20:33:55.914Z,96113.53
2022-10-31T20:36:23.471Z,96116.16
2022-10-31T20:38:52.081Z,96116.38
2022-10-31T20:41:19.628Z,96113.13
2022-10-31T20:43:46.611Z,96114.53
2022-10-31T20:46:23.560Z,96105.38
2022-10-31T20:48:51.938Z,96110.59
2022-10-31T20:51:22.563Z,96105.03
2022-10-31T20:53:51.633Z,96116.72
2022-10-31T20:56:20.548Z,96104.69
2022-10-31T20:58:48.369Z,96099.22
2022-10-31T21:01:27.312Z,96090.03
2022-10-31T21:03:58.485Z,96094.88
2022-10-31T21:06:27.137Z,96101.16
2022-10-31T21:08:54.728Z,96098.56
2022-10-31T21:11:23.601Z,96111.78
2022-10-31T21:13:51.105Z,96107.16
2022-10-31T21:16:22.260Z,96108.97
2022-10-31T21:18:49.906Z,96108.75
2022-10-31T21:21:30.652Z,96103.50
2022-10-31T21:24:03.360Z,96107.97
2022-10-31T21:26:33.728Z,96099.22
2022-10-31T21:29:01.912Z,96100.97
2022-10-31T21:31:29.408Z,96104.59
2022-10-31T21:33:56.402Z,96104.59
2022-10-31T21:36:23.827Z,96097.72
2022-10-31T21:38:51.820Z,96100.91
2022-10-31T21:41:20.278Z,96097.78
2022-10-31T21:43:49.169Z,96097.16
2022-10-31T21:46:18.662Z,96095.28
2022-10-31T21:48:46.392Z,96090.47
2022-10-31T21:51:16.421Z,96087.00
2022-10-31T21:54:02.249Z,96077.31
2022-10-31T21:56:29.634Z,96085.41
2022-10-31T21:58:56.402Z,96082.13
2022-10-31T22:01:25.201Z,96079.88
2022-10-31T22:03:52.208Z,96068.91
2022-10-31T22:06:19.220Z,96073.94
2022-10-31T22:08:46.141Z,96069.81
2022-10-31T22:11:15.633Z,96065.59
2022-10-31T22:13:44.468Z,96064.75
2022-10-31T22:16:13.796Z,96058.44
2022-10-31T22:18:41.591Z,96060.88
2022-10-31T22:21:17.506Z,96061.06
2022-10-31T22:23:44.915Z,96054.13
2022-10-31T22:26:14.514Z,96047.03
2022-10-31T22:28:43.006Z,96039.34
2022-10-31T22:33:45.374Z,96035.81
2022-10-31T22:36:15.573Z,96027.47
2022-10-31T22:38:43.077Z,96020.13
2022-10-31T22:41:12.737Z,96018.69
2022-10-31T22:43:39.933Z,96011.97
2022-10-31T22:46:08.746Z,96007.00
2022-10-31T22:48:38.352Z,96008.44
2022-10-31T22:51:06.868Z,96017.31
2022-10-31T22:53:36.029Z,96017.38
2022-10-31T22:56:04.552Z,96014.63
2022-10-31T22:58:35.495Z,96005.97
2022-10-31T23:01:16.909Z,96010.59
2022-10-31T23:03:45.840Z,96003.28
2022-10-31T23:06:16.151Z,95993.16
2022-10-31T23:08:44.303Z,95995.41
2022-10-31T23:11:26.497Z,96012.44
2022-10-31T23:14:14.022Z,96005.78
2022-10-31T23:16:43.143Z,95994.09
2022-10-31T23:19:12.938Z,95996.59
2022-10-31T23:22:00.554Z,95994.59
2022-10-31T23:24:43.282Z,95985.53
2022-10-31T23:27:16.189Z,95986.97
2022-10-31T23:29:54.125Z,95984.13
2022-10-31T23:32:31.293Z,95977.50
2022-10-31T23:35:04.358Z,95981.34
2022-10-31T23:37:35.136Z,95961.00
2022-10-31T23:40:02.566Z,95958.59
2022-10-31T23:42:30.065Z,95959.00
2022-10-31T23:44:57.547Z,95954.00
2022-10-31T23:47:24.976Z,95955.22
2022-10-31T23:49:54.738Z,95950.41
2022-10-31T23:52:22.076Z,95944.81
2022-10-31T23:54:49.739Z,95943.22
2022-10-31T23:57:17.754Z,95937.97
2022-10-31T23:59:45.936Z,95935.53
